createdAt,value
2018-11-03T00:02:22.033Z,97.83
2018-11-03T00:04:52.513Z,95.43
2018-11-03T00:07:21.498Z,96.04
2018-11-03T00:09:50.364Z,96.86
2018-11-03T00:12:19.566Z,97.81
2018-11-03T00:14:49.202Z,98.84
2018-11-03T00:17:19.749Z,98.07
2018-11-03T00:19:50.022Z,99.28
2018-11-03T00:22:18.895Z,98.68
2018-11-03T00:24:47.691Z,98.27
2018-11-03T00:27:17.540Z,98.80
2018-11-03T00:29:46.440Z,97.85
2018-11-03T00:32:15.419Z,97.79
2018-11-03T00:34:45.962Z,97.66
2018-11-03T00:37:15.274Z,97.49
2018-11-03T00:39:44.382Z,97.25
2018-11-03T00:42:13.234Z,96.97
2018-11-03T00:44:42.620Z,97.37
2018-11-03T00:47:12.382Z,97.74
2018-11-03T00:49:41.190Z,96.58
2018-11-03T00:52:10.962Z,97.00
2018-11-03T00:54:39.859Z,96.16
2018-11-03T00:57:08.750Z,95.13
2018-11-03T00:59:37.718Z,94.50
2018-11-03T01:02:07.043Z,95.12
2018-11-03T01:04:36.042Z,95.05
2018-11-03T01:07:08.552Z,95.05
2018-11-03T01:09:37.370Z,95.13
2018-11-03T01:12:06.511Z,94.89
2018-11-03T01:14:36.179Z,95.40
2018-11-03T01:17:05.224Z,94.87
2018-11-03T01:19:35.816Z,94.54
2018-11-03T01:22:04.802Z,94.06
2018-11-03T01:24:33.674Z,94.80
2018-11-03T01:27:02.899Z,94.73
2018-11-03T01:29:32.542Z,94.60
2018-11-03T01:32:01.395Z,95.15
2018-11-03T01:34:30.214Z,94.93
2018-11-03T01:36:59.123Z,95.14
2018-11-03T01:39:27.974Z,94.61
2018-11-03T01:41:58.029Z,94.77
2018-11-03T01:44:27.550Z,94.64
2018-11-03T01:46:56.439Z,94.35
2018-11-03T01:49:25.246Z,94.53
2018-11-03T01:51:54.090Z,95.02
2018-11-03T01:54:24.576Z,94.79
2018-11-03T01:56:53.422Z,94.12
2018-11-03T01:59:23.640Z,94.86
2018-11-03T02:01:54.093Z,94.32
2018-11-03T02:04:24.933Z,94.30
2018-11-03T02:06:54.059Z,95.12
2018-11-03T02:09:25.887Z,93.98
2018-11-03T02:11:54.764Z,94.99
2018-11-03T02:14:23.670Z,95.36
2018-11-03T02:16:52.831Z,94.94
2018-11-03T02:19:22.369Z,95.86
2018-11-03T02:21:51.287Z,95.80
2018-11-03T02:24:20.129Z,95.22
2018-11-03T02:26:49.298Z,95.06
2018-11-03T02:29:18.174Z,95.90
2018-11-03T02:31:47.075Z,95.77
2018-11-03T02:34:15.987Z,95.94
2018-11-03T02:36:44.834Z,96.11
2018-11-03T02:39:13.673Z,95.24
2018-11-03T02:41:42.819Z,95.48
2018-11-03T02:44:11.775Z,95.97
2018-11-03T02:46:40.646Z,96.39
2018-11-03T02:49:09.496Z,95.97
2018-11-03T02:51:38.292Z,96.35
2018-11-03T02:54:08.211Z,96.54
2018-11-03T02:56:37.091Z,96.27
2018-11-03T02:59:06.443Z,96.59
2018-11-03T03:01:35.264Z,97.03
2018-11-03T03:04:04.189Z,96.99
2018-11-03T03:06:33.389Z,97.32
2018-11-03T03:09:02.247Z,96.91
2018-11-03T03:11:31.141Z,97.42
2018-11-03T03:14:00.423Z,97.02
2018-11-03T03:16:29.234Z,97.79
2018-11-03T03:18:58.039Z,97.44
2018-11-03T03:21:27.372Z,96.87
2018-11-03T03:23:56.210Z,96.99
2018-11-03T03:26:28.822Z,97.49
2018-11-03T03:28:57.777Z,97.39
2018-11-03T03:31:26.662Z,98.56
2018-11-03T03:33:57.186Z,98.67
2018-11-03T03:36:26.793Z,99.13
2018-11-03T03:38:55.643Z,98.71
2018-11-03T03:41:24.640Z,98.58
2018-11-03T03:43:53.848Z,98.77
2018-11-03T03:46:22.659Z,99.12
2018-11-03T03:48:51.538Z,99.68
2018-11-03T03:51:20.796Z,99.72
2018-11-03T03:53:49.738Z,99.82
2018-11-03T03:56:18.579Z,100.00
2018-11-03T03:58:47.400Z,99.14
2018-11-03T04:01:16.753Z,99.61
2018-11-03T04:03:47.192Z,99.53
2018-11-03T04:06:16.054Z,99.81
2018-11-03T04:08:44.936Z,99.52
2018-11-03T04:11:15.458Z,100.00
2018-11-03T04:13:44.338Z,99.76
2018-11-03T04:16:13.196Z,99.99
2018-11-03T04:18:42.051Z,100.00
2018-11-03T04:21:14.626Z,100.00
2018-11-03T04:23:43.512Z,99.88
2018-11-03T04:26:12.399Z,100.00
2018-11-03T04:28:43.279Z,100.00
2018-11-03T04:31:12.181Z,100.00
2018-11-03T04:33:46.090Z,100.00
2018-11-03T04:36:15.666Z,100.00
2018-11-03T04:38:44.599Z,99.99
2018-11-03T04:41:15.584Z,99.68
2018-11-03T04:43:44.827Z,100.00
2018-11-03T04:46:13.664Z,99.96
2018-11-03T04:48:42.842Z,100.00
2018-11-03T04:51:12.171Z,100.00
2018-11-03T04:53:41.010Z,100.00
2018-11-03T04:56:09.794Z,100.00
2018-11-03T04:58:38.663Z,100.00
2018-11-03T05:01:07.487Z,100.00
2018-11-03T05:03:36.436Z,100.00
2018-11-03T05:06:05.362Z,100.00
2018-11-03T05:08:34.242Z,100.00
2018-11-03T05:11:03.082Z,100.00
2018-11-03T05:13:31.898Z,100.00
2018-11-03T05:16:00.819Z,100.00
2018-11-03T05:18:30.271Z,100.00
2018-11-03T05:20:59.521Z,100.00
2018-11-03T05:23:29.157Z,100.00
2018-11-03T05:26:00.867Z,100.00
2018-11-03T05:28:30.771Z,100.00
2018-11-03T05:31:00.143Z,100.00
2018-11-03T05:33:28.978Z,100.00
2018-11-03T05:35:57.849Z,100.00
2018-11-03T05:38:27.598Z,100.00
2018-11-03T05:40:56.496Z,100.00
2018-11-03T05:43:25.379Z,100.00
2018-11-03T05:45:54.640Z,100.00
2018-11-03T05:48:23.535Z,100.00
2018-11-03T05:50:52.406Z,100.00
2018-11-03T05:53:21.279Z,100.00
2018-11-03T05:55:50.466Z,100.00
2018-11-03T05:58:19.332Z,100.00
2018-11-03T06:00:48.200Z,100.00
2018-11-03T06:03:17.659Z,100.00
2018-11-03T06:05:46.818Z,100.00
2018-11-03T06:08:15.671Z,100.00
2018-11-03T06:10:46.383Z,100.00
2018-11-03T06:13:17.916Z,100.00
2018-11-03T06:15:47.262Z,100.00
2018-11-03T06:18:16.146Z,100.00
2018-11-03T06:20:53.491Z,100.00
2018-11-03T06:23:28.323Z,100.00
2018-11-03T06:25:57.548Z,100.00
2018-11-03T06:28:26.665Z,100.00
2018-11-03T06:30:56.229Z,100.00
2018-11-03T06:33:25.232Z,100.00
2018-11-03T06:35:54.244Z,100.00
2018-11-03T06:38:23.706Z,100.00
2018-11-03T06:40:52.594Z,100.00
2018-11-03T06:43:21.491Z,100.00
2018-11-03T06:45:52.451Z,100.00
2018-11-03T06:48:21.309Z,100.00
2018-11-03T06:50:51.942Z,100.00
2018-11-03T06:53:21.221Z,100.00
2018-11-03T06:55:51.013Z,100.00
2018-11-03T06:58:19.880Z,100.00
2018-11-03T07:00:48.785Z,100.00
2018-11-03T07:03:18.083Z,100.00
2018-11-03T07:05:47.070Z,100.00
2018-11-03T07:08:15.982Z,100.00
2018-11-03T07:10:46.459Z,99.83
2018-11-03T07:13:15.464Z,100.00
2018-11-03T07:15:45.994Z,100.00
2018-11-03T07:18:15.315Z,99.66
2018-11-03T07:20:44.192Z,100.00
2018-11-03T07:23:13.709Z,100.00
2018-11-03T07:25:43.433Z,99.69
2018-11-03T07:28:13.499Z,100.00
2018-11-03T07:30:42.459Z,99.38
2018-11-03T07:33:15.717Z,99.36
2018-11-03T07:35:50.799Z,99.41
2018-11-03T07:38:21.522Z,99.72
2018-11-03T07:40:50.779Z,100.00
2018-11-03T07:43:23.308Z,99.26
2018-11-03T07:46:00.331Z,99.15
2018-11-03T07:48:34.339Z,100.00
2018-11-03T07:51:03.622Z,99.88
2018-11-03T07:53:32.742Z,99.43
2018-11-03T07:56:01.626Z,98.32
2018-11-03T07:58:31.441Z,98.46
2018-11-03T08:01:00.277Z,98.53
2018-11-03T08:03:30.443Z,98.52
2018-11-03T08:06:01.539Z,98.20
2018-11-03T08:08:31.180Z,98.64
2018-11-03T08:11:00.119Z,99.50
2018-11-03T08:13:33.209Z,98.36
2018-11-03T08:16:02.071Z,98.10
2018-11-03T08:18:31.324Z,97.18
2018-11-03T08:21:03.790Z,98.82
2018-11-03T08:23:33.536Z,97.62
2018-11-03T08:26:03.180Z,98.08
2018-11-03T08:28:32.088Z,98.45
2018-11-03T08:31:01.262Z,98.63
2018-11-03T08:33:36.378Z,98.56
2018-11-03T08:36:05.299Z,98.56
2018-11-03T08:38:35.359Z,99.70
2018-11-03T08:41:06.473Z,99.67
2018-11-03T08:43:35.958Z,98.49
2018-11-03T08:46:11.777Z,98.72
2018-11-03T08:48:43.402Z,97.92
2018-11-03T08:51:13.640Z,98.50
2018-11-03T08:53:50.459Z,98.56
2018-11-03T08:56:23.057Z,99.07
2018-11-03T08:58:51.861Z,98.08
2018-11-03T09:01:25.550Z,97.88
2018-11-03T09:03:57.912Z,97.97
2018-11-03T09:06:45.706Z,98.67
2018-11-03T09:09:16.847Z,98.66
2018-11-03T09:11:45.888Z,98.85
2018-11-03T09:14:17.453Z,98.80
2018-11-03T09:16:47.002Z,97.98
2018-11-03T09:19:17.046Z,97.40
2018-11-03T09:21:48.418Z,95.47
2018-11-03T09:24:18.640Z,95.25
2018-11-03T09:26:48.314Z,94.79
2018-11-03T09:29:17.627Z,95.33
2018-11-03T09:31:50.313Z,95.86
2018-11-03T09:34:25.083Z,96.03
2018-11-03T09:36:53.933Z,94.91
2018-11-03T09:39:25.454Z,94.26
2018-11-03T09:41:54.370Z,93.55
2018-11-03T09:44:24.476Z,93.51
2018-11-03T09:46:55.077Z,93.34
2018-11-03T09:49:26.777Z,94.24
2018-11-03T09:51:55.736Z,94.18
2018-11-03T09:54:26.152Z,94.57
2018-11-03T09:56:55.699Z,93.43
2018-11-03T09:59:28.416Z,93.24
2018-11-03T10:01:57.784Z,92.72
2018-11-03T10:04:26.606Z,93.23
2018-11-03T10:06:56.491Z,93.59
2018-11-03T10:09:25.882Z,93.08
2018-11-03T10:11:54.764Z,93.34
2018-11-03T10:14:24.429Z,91.74
2018-11-03T10:16:54.734Z,92.15
2018-11-03T10:19:24.033Z,92.29
2018-11-03T10:21:55.223Z,91.79
2018-11-03T10:24:32.398Z,91.85
2018-11-03T10:27:06.497Z,90.90
2018-11-03T10:29:44.376Z,89.93
2018-11-03T10:32:14.365Z,89.06
2018-11-03T10:34:45.283Z,89.33
2018-11-03T10:37:17.247Z,88.46
2018-11-03T10:39:50.296Z,88.88
2018-11-03T10:42:21.542Z,88.55
2018-11-03T10:44:54.394Z,89.49
2018-11-03T10:47:26.322Z,88.72
2018-11-03T10:49:56.029Z,89.40
2018-11-03T10:52:26.365Z,88.63
2018-11-03T10:54:59.350Z,88.72
2018-11-03T10:57:28.682Z,89.33
2018-11-03T10:59:59.244Z,88.91
2018-11-03T11:02:33.166Z,88.31
2018-11-03T11:05:07.185Z,88.20
2018-11-03T11:07:42.275Z,86.84
2018-11-03T11:10:17.558Z,86.73
2018-11-03T11:12:48.921Z,88.07
2018-11-03T11:15:18.379Z,87.08
2018-11-03T11:17:49.040Z,87.83
2018-11-03T11:20:19.405Z,88.22
2018-11-03T11:22:49.622Z,87.68
2018-11-03T11:25:21.170Z,87.40
2018-11-03T11:27:49.926Z,86.89
2018-11-03T11:30:19.539Z,88.22
2018-11-03T11:32:49.807Z,87.75
2018-11-03T11:35:19.400Z,86.93
2018-11-03T11:37:48.191Z,86.72
2018-11-03T11:40:17.044Z,85.72
2018-11-03T11:42:45.887Z,86.10
2018-11-03T11:45:14.678Z,86.86
2018-11-03T11:47:44.830Z,87.08
2018-11-03T11:50:14.504Z,86.66
2018-11-03T11:52:49.065Z,85.67
2018-11-03T11:55:19.215Z,85.43
2018-11-03T11:57:49.197Z,86.68
2018-11-03T12:00:19.053Z,87.21
2018-11-03T12:02:47.934Z,86.85
2018-11-03T12:05:19.944Z,86.22
2018-11-03T12:07:49.382Z,87.58
2018-11-03T12:10:22.823Z,87.06
2018-11-03T12:12:53.521Z,87.00
2018-11-03T12:15:24.744Z,87.92
2018-11-03T12:17:55.399Z,87.51
2018-11-03T12:20:29.063Z,87.77
2018-11-03T12:22:59.367Z,87.69
2018-11-03T12:25:30.398Z,87.89
2018-11-03T12:28:02.538Z,89.15
2018-11-03T12:30:33.476Z,88.49
2018-11-03T12:33:04.303Z,88.11
2018-11-03T12:35:33.922Z,88.68
2018-11-03T12:38:08.474Z,88.93
2018-11-03T12:40:38.865Z,88.85
2018-11-03T12:43:08.214Z,89.46
2018-11-03T12:49:30.665Z,90.02
2018-11-03T12:52:02.333Z,89.02
2018-11-03T12:54:32.685Z,89.06
2018-11-03T12:57:04.043Z,88.17
2018-11-03T12:59:34.247Z,88.18
2018-11-03T13:02:04.425Z,89.05
2018-11-03T13:08:06.334Z,89.51
2018-11-03T13:10:36.460Z,90.21
2018-11-03T13:13:07.366Z,89.40
2018-11-03T13:15:37.089Z,90.10
2018-11-03T13:18:06.422Z,90.05
2018-11-03T13:20:35.291Z,91.15
2018-11-03T13:23:06.403Z,90.88
2018-11-03T13:25:36.850Z,91.10
2018-11-03T13:28:07.453Z,90.97
2018-11-03T13:30:36.397Z,91.79
2018-11-03T13:33:06.281Z,91.96
2018-11-03T13:35:37.376Z,92.23
2018-11-03T13:38:07.186Z,93.01
2018-11-03T13:40:37.948Z,93.27
2018-11-03T13:43:09.491Z,93.17
2018-11-03T13:45:41.478Z,93.85
2018-11-03T13:48:13.663Z,93.70
2018-11-03T13:50:43.452Z,94.51
2018-11-03T13:53:12.314Z,94.30
2018-11-03T13:55:41.165Z,95.08
2018-11-03T13:58:13.131Z,95.77
2018-11-03T14:00:44.172Z,95.30
2018-11-03T14:03:14.836Z,95.24
2018-11-03T14:05:45.253Z,95.40
2018-11-03T14:08:18.267Z,95.51
2018-11-03T14:11:17.837Z,95.46
2018-11-03T14:13:53.474Z,95.57
2018-11-03T14:16:22.373Z,96.13
2018-11-03T14:18:52.390Z,96.85
2018-11-03T14:21:21.385Z,97.19
2018-11-03T14:23:50.331Z,96.72
2018-11-03T14:26:19.453Z,97.08
2018-11-03T14:28:54.536Z,97.86
2018-11-03T14:31:24.759Z,97.34
2018-11-03T14:33:54.387Z,97.63
2018-11-03T14:36:24.138Z,98.30
2018-11-03T14:38:53.006Z,97.67
2018-11-03T14:41:22.206Z,97.57
2018-11-03T14:43:51.794Z,97.44
2018-11-03T14:46:22.706Z,97.38
2018-11-03T14:48:54.381Z,97.77
2018-11-03T14:51:24.054Z,97.98
2018-11-03T14:53:52.898Z,98.21
2018-11-03T14:56:21.741Z,99.18
2018-11-03T14:58:54.823Z,99.51
2018-11-03T15:01:25.366Z,99.67
2018-11-03T15:03:55.475Z,99.82
2018-11-03T15:06:24.363Z,98.89
2018-11-03T15:08:53.199Z,99.54
2018-11-03T15:11:25.021Z,100.00
2018-11-03T15:13:54.764Z,100.00
2018-11-03T15:16:23.401Z,99.46
2018-11-03T15:18:53.169Z,100.00
2018-11-03T15:21:22.042Z,99.96
2018-11-03T15:23:52.166Z,100.00
2018-11-03T15:26:21.030Z,100.00
2018-11-03T15:28:50.310Z,100.00
2018-11-03T15:31:19.138Z,100.00
2018-11-03T15:33:52.350Z,100.00
2018-11-03T15:36:23.785Z,100.00
2018-11-03T15:38:53.423Z,100.00
2018-11-03T15:41:24.759Z,100.00
2018-11-03T15:43:55.584Z,100.00
2018-11-03T15:46:26.689Z,100.00
2018-11-03T15:48:56.607Z,100.00
2018-11-03T15:51:26.211Z,100.00
2018-11-03T15:59:17.338Z,100.00
2018-11-03T16:01:47.151Z,100.00
2018-11-03T16:04:17.662Z,100.00
2018-11-03T16:06:46.526Z,100.00
2018-11-03T16:09:17.906Z,100.00
2018-11-03T16:11:48.000Z,100.00
2018-11-03T16:14:18.072Z,100.00
2018-11-03T16:16:47.413Z,100.00
2018-11-03T16:19:16.279Z,100.00
2018-11-03T16:21:45.782Z,100.00
2018-11-03T16:24:14.684Z,100.00
2018-11-03T16:26:44.310Z,100.00
2018-11-03T16:29:14.714Z,100.00
2018-11-03T16:31:44.274Z,100.00
2018-11-03T16:34:14.663Z,100.00
2018-11-03T16:36:45.342Z,100.00
2018-11-03T16:39:14.503Z,100.00
2018-11-03T16:41:47.287Z,100.00
2018-11-03T16:44:17.797Z,100.00
2018-11-03T16:46:48.803Z,100.00
2018-11-03T16:49:24.367Z,100.00
2018-11-03T16:51:55.223Z,100.00
2018-11-03T16:54:30.476Z,100.00
2018-11-03T16:56:59.467Z,100.00
2018-11-03T16:59:29.940Z,100.00
2018-11-03T17:01:59.300Z,100.00
2018-11-03T17:04:28.875Z,100.00
2018-11-03T17:06:59.505Z,100.00
2018-11-03T17:09:28.995Z,100.00
2018-11-03T17:11:57.942Z,100.00
2018-11-03T17:14:26.851Z,100.00
2018-11-03T17:16:55.991Z,100.00
2018-11-03T17:19:24.850Z,100.00
2018-11-03T17:21:53.722Z,100.00
2018-11-03T17:24:24.539Z,100.00
2018-11-03T17:26:57.078Z,100.00
2018-11-03T17:29:26.918Z,100.00
2018-11-03T17:31:57.865Z,100.00
2018-11-03T17:34:29.616Z,100.00
2018-11-03T17:36:59.319Z,100.00
2018-11-03T17:39:29.423Z,100.00
2018-11-03T17:41:59.679Z,100.00
2018-11-03T17:44:36.294Z,100.00
2018-11-03T17:47:07.490Z,100.00
2018-11-03T17:49:40.164Z,100.00
2018-11-03T17:52:13.008Z,100.00
2018-11-03T17:54:42.493Z,100.00
2018-11-03T17:57:18.839Z,100.00
2018-11-03T17:59:47.838Z,100.00
2018-11-03T18:02:18.773Z,100.00
2018-11-03T18:04:49.475Z,100.00
2018-11-03T18:07:21.306Z,100.00
2018-11-03T18:09:54.403Z,100.00
2018-11-03T18:12:27.099Z,100.00
2018-11-03T18:14:57.151Z,100.00
2018-11-03T18:17:29.218Z,100.00
2018-11-03T18:20:05.338Z,100.00
2018-11-03T18:22:39.075Z,100.00
2018-11-03T18:25:14.319Z,100.00
2018-11-03T18:27:46.433Z,100.00
2018-11-03T18:30:21.663Z,100.00
2018-11-03T18:32:54.754Z,100.00
2018-11-03T18:35:29.364Z,100.00
2018-11-03T18:38:00.290Z,100.00
2018-11-03T18:40:32.414Z,100.00
2018-11-03T18:45:49.350Z,100.00
2018-11-03T18:48:18.945Z,100.00
2018-11-03T18:50:52.547Z,100.00
2018-11-03T18:53:22.383Z,100.00
2018-11-03T18:55:54.667Z,100.00
2018-11-03T18:58:26.948Z,100.00
2018-11-03T19:00:57.334Z,100.00
2018-11-03T19:03:26.515Z,100.00
2018-11-03T19:05:56.809Z,100.00
2018-11-03T19:08:26.631Z,100.00
2018-11-03T19:10:58.711Z,100.00
2018-11-03T19:13:27.560Z,100.00
2018-11-03T19:15:57.185Z,100.00
2018-11-03T19:18:26.063Z,100.00
2018-11-03T19:20:55.303Z,100.00
2018-11-03T19:30:21.317Z,100.00
2018-11-03T19:32:51.810Z,100.00
2018-11-03T19:35:27.106Z,100.00
2018-11-03T19:37:57.766Z,100.00
2018-11-03T19:40:50.820Z,100.00
2018-11-03T19:43:21.352Z,100.00
2018-11-03T19:45:50.411Z,100.00
2018-11-03T19:48:22.299Z,100.00
2018-11-03T19:50:51.733Z,100.00
2018-11-03T19:53:23.779Z,100.00
2018-11-03T19:56:01.236Z,100.00
2018-11-03T19:58:32.115Z,100.00
2018-11-03T20:01:03.704Z,100.00
2018-11-03T20:03:36.433Z,100.00
2018-11-03T20:06:05.330Z,100.00
2018-11-03T20:08:40.318Z,100.00
2018-11-03T20:11:11.970Z,100.00
2018-11-03T20:13:45.080Z,100.00
2018-11-03T20:16:14.842Z,100.00
2018-11-03T20:18:50.094Z,100.00
2018-11-03T20:21:20.436Z,100.00
2018-11-03T20:23:50.007Z,100.00
2018-11-03T20:26:21.866Z,100.00
2018-11-03T20:28:50.706Z,100.00
2018-11-03T20:31:26.116Z,100.00
2018-11-03T20:33:59.309Z,100.00
2018-11-03T20:36:30.120Z,100.00
2018-11-03T20:39:01.443Z,100.00
2018-11-03T20:41:32.020Z,100.00
2018-11-03T20:44:02.087Z,100.00
2018-11-03T20:46:30.880Z,100.00
2018-11-03T20:49:04.442Z,100.00
2018-11-03T20:51:37.418Z,100.00
2018-11-03T20:54:08.468Z,100.00
2018-11-03T20:56:38.503Z,100.00
2018-11-03T20:59:07.407Z,100.00
2018-11-03T21:01:38.152Z,100.00
2018-11-03T21:04:07.555Z,100.00
2018-11-03T21:06:38.220Z,100.00
2018-11-03T21:09:10.056Z,100.00
2018-11-03T21:11:47.486Z,100.00
2018-11-03T21:14:21.666Z,100.00
2018-11-03T21:16:52.184Z,100.00
2018-11-03T21:19:22.336Z,100.00
2018-11-03T21:21:56.518Z,100.00
2018-11-03T21:24:25.442Z,100.00
2018-11-03T21:26:56.206Z,100.00
2018-11-03T21:29:25.398Z,100.00
2018-11-03T21:31:55.546Z,100.00
2018-11-03T21:34:25.718Z,100.00
2018-11-03T21:37:08.885Z,100.00
2018-11-03T21:39:39.680Z,100.00
2018-11-03T21:42:09.534Z,100.00
2018-11-03T21:44:41.365Z,100.00
2018-11-03T21:47:14.126Z,100.00
2018-11-03T21:49:46.641Z,100.00
2018-11-03T21:52:30.412Z,100.00
2018-11-03T21:55:00.343Z,100.00
2018-11-03T21:57:31.298Z,100.00
2018-11-03T22:00:00.266Z,100.00
2018-11-03T22:02:30.441Z,100.00
2018-11-03T22:05:02.942Z,100.00
2018-11-03T22:07:34.424Z,100.00
2018-11-03T22:10:08.458Z,100.00
2018-11-03T22:12:40.052Z,100.00
2018-11-03T22:15:12.363Z,100.00
2018-11-03T22:17:43.150Z,100.00
2018-11-03T22:20:15.510Z,100.00
2018-11-03T22:22:47.975Z,100.00
2018-11-03T22:25:18.191Z,100.00
2018-11-03T22:27:47.124Z,100.00
2018-11-03T22:30:16.430Z,100.00
2018-11-03T22:32:47.371Z,100.00
2018-11-03T22:35:17.386Z,100.00
2018-11-03T22:37:46.527Z,100.00
2018-11-03T22:40:16.514Z,100.00
2018-11-03T22:42:46.591Z,100.00
2018-11-03T22:45:15.461Z,100.00
2018-11-03T22:47:44.462Z,100.00
2018-11-03T22:50:16.177Z,100.00
2018-11-03T22:52:46.142Z,100.00
2018-11-03T22:55:16.350Z,100.00
2018-11-03T22:57:45.998Z,100.00
2018-11-03T23:00:15.280Z,100.00
2018-11-03T23:02:48.649Z,100.00
2018-11-03T23:05:25.431Z,100.00
2018-11-03T23:07:55.592Z,100.00
2018-11-03T23:10:24.878Z,100.00
2018-11-03T23:12:55.970Z,100.00
2018-11-03T23:15:41.268Z,100.00
2018-11-03T23:18:11.935Z,100.00
2018-11-03T23:20:43.283Z,100.00
2018-11-03T23:23:14.235Z,100.00
2018-11-03T23:25:47.703Z,100.00
2018-11-03T23:28:17.413Z,100.00
2018-11-03T23:33:31.894Z,100.00
2018-11-03T23:36:09.572Z,100.00
2018-11-03T23:38:50.257Z,100.00
2018-11-03T23:41:19.784Z,100.00
2018-11-03T23:43:56.686Z,100.00
2018-11-03T23:46:32.220Z,100.00
2018-11-03T23:49:03.848Z,100.00
2018-11-03T23:51:34.335Z,100.00
2018-11-03T23:54:04.134Z,100.00
2018-11-03T23:56:34.188Z,100.00
2018-11-03T23:59:03.304Z,100.00
